sensor_id;sensor_type;location;lat;lon;timestamp;P1;durP1;ratioP1;P2;durP2;ratioP2
73154;SDS011;61364;52.418;7.382;2022-07-26T00:01:04;1.79;;;1.79;;
73154;SDS011;61364;52.418;7.382;2022-07-26T00:03:29;1.99;;;1.99;;
73154;SDS011;61364;52.418;7.382;2022-07-26T00:05:55;1.99;;;1.93;;
73154;SDS011;61364;52.418;7.382;2022-07-26T00:08:21;2.10;;;1.99;;
73154;SDS011;61364;52.418;7.382;2022-07-26T00:10:47;2.07;;;1.98;;
73154;SDS011;61364;52.418;7.382;2022-07-26T00:13:13;2.21;;;2.14;;
73154;SDS011;61364;52.418;7.382;2022-07-26T00:15:42;2.02;;;1.95;;
73154;SDS011;61364;52.418;7.382;2022-07-26T00:18:08;2.15;;;2.06;;
73154;SDS011;61364;52.418;7.382;2022-07-26T00:20:33;2.10;;;1.99;;
73154;SDS011;61364;52.418;7.382;2022-07-26T00:22:59;2.10;;;2.01;;
73154;SDS011;61364;52.418;7.382;2022-07-26T00:25:25;2.18;;;2.08;;
73154;SDS011;61364;52.418;7.382;2022-07-26T00:27:50;2.05;;;1.95;;
73154;SDS011;61364;52.418;7.382;2022-07-26T00:30:16;2.41;;;2.28;;
73154;SDS011;61364;52.418;7.382;2022-07-26T00:32:41;2.44;;;2.27;;
73154;SDS011;61364;52.418;7.382;2022-07-26T00:35:08;2.50;;;2.32;;
73154;SDS011;61364;52.418;7.382;2022-07-26T00:37:34;2.54;;;2.36;;
73154;SDS011;61364;52.418;7.382;2022-07-26T00:39:59;2.57;;;2.38;;
73154;SDS011;61364;52.418;7.382;2022-07-26T00:42:25;2.67;;;2.49;;
73154;SDS011;61364;52.418;7.382;2022-07-26T00:44:50;2.65;;;2.48;;
73154;SDS011;61364;52.418;7.382;2022-07-26T00:47:16;2.83;;;2.61;;
73154;SDS011;61364;52.418;7.382;2022-07-26T00:49:42;2.70;;;2.53;;
73154;SDS011;61364;52.418;7.382;2022-07-26T00:52:08;2.61;;;2.42;;
73154;SDS011;61364;52.418;7.382;2022-07-26T00:54:35;2.77;;;2.59;;
73154;SDS011;61364;52.418;7.382;2022-07-26T00:57:01;2.72;;;2.54;;
73154;SDS011;61364;52.418;7.382;2022-07-26T00:59:26;2.69;;;2.49;;
73154;SDS011;61364;52.418;7.382;2022-07-26T01:01:53;2.84;;;2.65;;
73154;SDS011;61364;52.418;7.382;2022-07-26T01:04:19;2.75;;;2.52;;
73154;SDS011;61364;52.418;7.382;2022-07-26T01:06:45;3.06;;;2.78;;
73154;SDS011;61364;52.418;7.382;2022-07-26T01:09:12;3.25;;;2.92;;
73154;SDS011;61364;52.418;7.382;2022-07-26T01:11:38;3.12;;;2.80;;
73154;SDS011;61364;52.418;7.382;2022-07-26T01:14:04;2.90;;;2.62;;
73154;SDS011;61364;52.418;7.382;2022-07-26T01:16:29;2.98;;;2.72;;
73154;SDS011;61364;52.418;7.382;2022-07-26T01:18:55;3.03;;;2.75;;
73154;SDS011;61364;52.418;7.382;2022-07-26T01:21:20;2.78;;;2.54;;
73154;SDS011;61364;52.418;7.382;2022-07-26T01:23:46;2.98;;;2.74;;
73154;SDS011;61364;52.418;7.382;2022-07-26T01:26:12;2.88;;;2.65;;
73154;SDS011;61364;52.418;7.382;2022-07-26T01:28:38;3.23;;;2.91;;
73154;SDS011;61364;52.418;7.382;2022-07-26T01:31:04;2.89;;;2.62;;
73154;SDS011;61364;52.418;7.382;2022-07-26T01:33:31;3.08;;;2.89;;
73154;SDS011;61364;52.418;7.382;2022-07-26T01:35:57;2.88;;;2.72;;
73154;SDS011;61364;52.418;7.382;2022-07-26T01:38:24;2.78;;;2.61;;
73154;SDS011;61364;52.418;7.382;2022-07-26T01:40:50;2.95;;;2.83;;
73154;SDS011;61364;52.418;7.382;2022-07-26T01:43:16;2.59;;;2.47;;
73154;SDS011;61364;52.418;7.382;2022-07-26T01:45:41;2.72;;;2.60;;
73154;SDS011;61364;52.418;7.382;2022-07-26T01:48:07;2.85;;;2.67;;
73154;SDS011;61364;52.418;7.382;2022-07-26T01:50:33;3.04;;;2.84;;
73154;SDS011;61364;52.418;7.382;2022-07-26T01:52:59;3.21;;;2.97;;
73154;SDS011;61364;52.418;7.382;2022-07-26T01:55:25;3.08;;;2.80;;
73154;SDS011;61364;52.418;7.382;2022-07-26T01:57:50;3.10;;;2.80;;
73154;SDS011;61364;52.418;7.382;2022-07-26T02:00:16;3.15;;;2.83;;
73154;SDS011;61364;52.418;7.382;2022-07-26T02:02:41;3.08;;;2.72;;
73154;SDS011;61364;52.418;7.382;2022-07-26T02:05:07;3.50;;;3.09;;
73154;SDS011;61364;52.418;7.382;2022-07-26T02:07:37;3.43;;;3.04;;
73154;SDS011;61364;52.418;7.382;2022-07-26T02:10:04;3.34;;;2.96;;
73154;SDS011;61364;52.418;7.382;2022-07-26T02:12:32;3.10;;;2.78;;
73154;SDS011;61364;52.418;7.382;2022-07-26T02:14:57;3.01;;;2.74;;
73154;SDS011;61364;52.418;7.382;2022-07-26T02:17:23;3.70;;;3.28;;
73154;SDS011;61364;52.418;7.382;2022-07-26T02:19:48;3.48;;;3.09;;
73154;SDS011;61364;52.418;7.382;2022-07-26T02:22:14;3.44;;;3.12;;
73154;SDS011;61364;52.418;7.382;2022-07-26T02:24:40;3.01;;;2.78;;
73154;SDS011;61364;52.418;7.382;2022-07-26T02:27:06;3.43;;;3.11;;
73154;SDS011;61364;52.418;7.382;2022-07-26T02:29:31;3.04;;;2.74;;
73154;SDS011;61364;52.418;7.382;2022-07-26T02:31:57;3.33;;;2.97;;
73154;SDS011;61364;52.418;7.382;2022-07-26T02:34:23;3.45;;;3.05;;
73154;SDS011;61364;52.418;7.382;2022-07-26T02:36:48;3.48;;;3.04;;
73154;SDS011;61364;52.418;7.382;2022-07-26T02:39:14;3.55;;;3.05;;
73154;SDS011;61364;52.418;7.382;2022-07-26T02:41:40;3.71;;;3.16;;
73154;SDS011;61364;52.418;7.382;2022-07-26T02:44:07;3.98;;;3.39;;
73154;SDS011;61364;52.418;7.382;2022-07-26T02:46:33;3.50;;;3.08;;
73154;SDS011;61364;52.418;7.382;2022-07-26T02:48:59;3.45;;;3.09;;
73154;SDS011;61364;52.418;7.382;2022-07-26T02:51:25;3.51;;;3.16;;
73154;SDS011;61364;52.418;7.382;2022-07-26T02:53:51;3.33;;;3.01;;
73154;SDS011;61364;52.418;7.382;2022-07-26T02:56:18;3.33;;;3.00;;
73154;SDS011;61364;52.418;7.382;2022-07-26T02:58:44;3.09;;;2.77;;
73154;SDS011;61364;52.418;7.382;2022-07-26T03:01:09;3.40;;;3.04;;
73154;SDS011;61364;52.418;7.382;2022-07-26T03:03:35;3.35;;;2.98;;
73154;SDS011;61364;52.418;7.382;2022-07-26T03:06:01;3.28;;;2.97;;
73154;SDS011;61364;52.418;7.382;2022-07-26T03:08:26;3.33;;;3.02;;
73154;SDS011;61364;52.418;7.382;2022-07-26T03:10:52;3.50;;;3.21;;
73154;SDS011;61364;52.418;7.382;2022-07-26T03:13:17;3.43;;;3.11;;
73154;SDS011;61364;52.418;7.382;2022-07-26T03:15:43;3.41;;;3.12;;
73154;SDS011;61364;52.418;7.382;2022-07-26T03:18:08;3.58;;;3.18;;
73154;SDS011;61364;52.418;7.382;2022-07-26T03:20:34;3.99;;;3.47;;
73154;SDS011;61364;52.418;7.382;2022-07-26T03:22:59;3.51;;;3.11;;
73154;SDS011;61364;52.418;7.382;2022-07-26T03:25:25;3.55;;;3.19;;
73154;SDS011;61364;52.418;7.382;2022-07-26T03:27:53;3.33;;;3.05;;
73154;SDS011;61364;52.418;7.382;2022-07-26T03:30:18;3.40;;;3.06;;
73154;SDS011;61364;52.418;7.382;2022-07-26T03:32:44;3.45;;;3.04;;
73154;SDS011;61364;52.418;7.382;2022-07-26T03:35:09;3.42;;;3.07;;
73154;SDS011;61364;52.418;7.382;2022-07-26T03:37:35;3.47;;;3.14;;
73154;SDS011;61364;52.418;7.382;2022-07-26T03:40:00;3.35;;;3.05;;
73154;SDS011;61364;52.418;7.382;2022-07-26T03:42:26;3.28;;;3.10;;
73154;SDS011;61364;52.418;7.382;2022-07-26T03:44:51;3.24;;;3.05;;
73154;SDS011;61364;52.418;7.382;2022-07-26T03:47:16;3.27;;;3.04;;
73154;SDS011;61364;52.418;7.382;2022-07-26T03:49:42;3.65;;;3.38;;
73154;SDS011;61364;52.418;7.382;2022-07-26T03:52:07;3.49;;;3.25;;
73154;SDS011;61364;52.418;7.382;2022-07-26T03:54:35;3.26;;;3.09;;
73154;SDS011;61364;52.418;7.382;2022-07-26T03:57:00;3.39;;;3.22;;
73154;SDS011;61364;52.418;7.382;2022-07-26T03:59:26;3.13;;;2.98;;
73154;SDS011;61364;52.418;7.382;2022-07-26T04:01:51;3.27;;;3.13;;
73154;SDS011;61364;52.418;7.382;2022-07-26T04:04:17;3.29;;;3.10;;
73154;SDS011;61364;52.418;7.382;2022-07-26T04:06:43;2.85;;;2.74;;
73154;SDS011;61364;52.418;7.382;2022-07-26T04:09:10;3.09;;;2.99;;
73154;SDS011;61364;52.418;7.382;2022-07-26T04:11:36;2.87;;;2.81;;
73154;SDS011;61364;52.418;7.382;2022-07-26T04:14:02;2.62;;;2.61;;
73154;SDS011;61364;52.418;7.382;2022-07-26T04:16:28;3.11;;;3.05;;
73154;SDS011;61364;52.418;7.382;2022-07-26T04:18:53;3.24;;;3.13;;
73154;SDS011;61364;52.418;7.382;2022-07-26T04:21:19;3.00;;;2.93;;
73154;SDS011;61364;52.418;7.382;2022-07-26T04:23:44;3.23;;;3.11;;
73154;SDS011;61364;52.418;7.382;2022-07-26T04:26:10;3.19;;;3.11;;
73154;SDS011;61364;52.418;7.382;2022-07-26T04:28:37;3.48;;;3.41;;
73154;SDS011;61364;52.418;7.382;2022-07-26T04:31:02;3.67;;;3.48;;
73154;SDS011;61364;52.418;7.382;2022-07-26T04:33:28;3.68;;;3.49;;
73154;SDS011;61364;52.418;7.382;2022-07-26T04:35:53;3.60;;;3.43;;
73154;SDS011;61364;52.418;7.382;2022-07-26T04:38:19;3.28;;;3.26;;
73154;SDS011;61364;52.418;7.382;2022-07-26T04:40:44;3.37;;;3.37;;
73154;SDS011;61364;52.418;7.382;2022-07-26T04:43:10;3.51;;;3.45;;
73154;SDS011;61364;52.418;7.382;2022-07-26T04:45:35;3.77;;;3.63;;
73154;SDS011;61364;52.418;7.382;2022-07-26T04:48:01;3.60;;;3.57;;
73154;SDS011;61364;52.418;7.382;2022-07-26T04:50:27;3.36;;;3.36;;
73154;SDS011;61364;52.418;7.382;2022-07-26T04:52:53;3.50;;;3.50;;
73154;SDS011;61364;52.418;7.382;2022-07-26T04:55:19;3.45;;;3.45;;
73154;SDS011;61364;52.418;7.382;2022-07-26T04:57:45;3.47;;;3.46;;
73154;SDS011;61364;52.418;7.382;2022-07-26T05:00:12;3.80;;;3.73;;
73154;SDS011;61364;52.418;7.382;2022-07-26T05:02:39;3.78;;;3.69;;
73154;SDS011;61364;52.418;7.382;2022-07-26T05:05:05;3.83;;;3.77;;
73154;SDS011;61364;52.418;7.382;2022-07-26T05:10:06;3.40;;;3.40;;
73154;SDS011;61364;52.418;7.382;2022-07-26T05:12:31;3.55;;;3.55;;
73154;SDS011;61364;52.418;7.382;2022-07-26T05:14:57;3.97;;;3.85;;
73154;SDS011;61364;52.418;7.382;2022-07-26T05:17:22;3.87;;;3.71;;
73154;SDS011;61364;52.418;7.382;2022-07-26T05:19:47;3.96;;;3.81;;
73154;SDS011;61364;52.418;7.382;2022-07-26T05:22:13;3.62;;;3.56;;
73154;SDS011;61364;52.418;7.382;2022-07-26T05:24:38;3.65;;;3.65;;
73154;SDS011;61364;52.418;7.382;2022-07-26T05:27:04;3.71;;;3.71;;
73154;SDS011;61364;52.418;7.382;2022-07-26T05:29:29;3.81;;;3.80;;
73154;SDS011;61364;52.418;7.382;2022-07-26T05:31:55;3.90;;;3.86;;
73154;SDS011;61364;52.418;7.382;2022-07-26T05:34:20;3.69;;;3.64;;
73154;SDS011;61364;52.418;7.382;2022-07-26T05:36:47;3.56;;;3.49;;
73154;SDS011;61364;52.418;7.382;2022-07-26T05:39:12;3.82;;;3.72;;
73154;SDS011;61364;52.418;7.382;2022-07-26T05:41:37;3.67;;;3.64;;
73154;SDS011;61364;52.418;7.382;2022-07-26T05:44:03;3.53;;;3.53;;
73154;SDS011;61364;52.418;7.382;2022-07-26T05:46:28;3.93;;;3.93;;
73154;SDS011;61364;52.418;7.382;2022-07-26T05:48:54;4.04;;;4.03;;
73154;SDS011;61364;52.418;7.382;2022-07-26T05:51:19;4.33;;;4.19;;
73154;SDS011;61364;52.418;7.382;2022-07-26T05:53:45;4.20;;;4.06;;
73154;SDS011;61364;52.418;7.382;2022-07-26T05:56:10;4.07;;;4.06;;
73154;SDS011;61364;52.418;7.382;2022-07-26T05:58:35;3.30;;;3.30;;
73154;SDS011;61364;52.418;7.382;2022-07-26T06:01:01;2.85;;;2.84;;
73154;SDS011;61364;52.418;7.382;2022-07-26T06:03:26;2.97;;;2.95;;
73154;SDS011;61364;52.418;7.382;2022-07-26T06:05:53;2.91;;;2.91;;
73154;SDS011;61364;52.418;7.382;2022-07-26T06:08:21;3.03;;;3.03;;
73154;SDS011;61364;52.418;7.382;2022-07-26T06:10:47;2.77;;;2.77;;
73154;SDS011;61364;52.418;7.382;2022-07-26T06:13:12;3.13;;;3.13;;
73154;SDS011;61364;52.418;7.382;2022-07-26T06:15:38;2.83;;;2.83;;
73154;SDS011;61364;52.418;7.382;2022-07-26T06:18:04;2.76;;;2.76;;
73154;SDS011;61364;52.418;7.382;2022-07-26T06:20:30;2.94;;;2.94;;
73154;SDS011;61364;52.418;7.382;2022-07-26T06:22:56;2.88;;;2.88;;
73154;SDS011;61364;52.418;7.382;2022-07-26T06:25:23;2.97;;;2.97;;
73154;SDS011;61364;52.418;7.382;2022-07-26T06:27:48;2.74;;;2.74;;
73154;SDS011;61364;52.418;7.382;2022-07-26T06:30:14;2.86;;;2.86;;
73154;SDS011;61364;52.418;7.382;2022-07-26T06:32:39;2.51;;;2.51;;
73154;SDS011;61364;52.418;7.382;2022-07-26T06:35:12;2.34;;;2.34;;
73154;SDS011;61364;52.418;7.382;2022-07-26T06:37:38;2.41;;;2.41;;
73154;SDS011;61364;52.418;7.382;2022-07-26T06:40:05;2.29;;;2.29;;
73154;SDS011;61364;52.418;7.382;2022-07-26T06:42:31;2.36;;;2.36;;
73154;SDS011;61364;52.418;7.382;2022-07-26T06:44:57;2.17;;;2.17;;
73154;SDS011;61364;52.418;7.382;2022-07-26T06:47:23;2.04;;;2.04;;
73154;SDS011;61364;52.418;7.382;2022-07-26T06:49:49;2.26;;;2.26;;
73154;SDS011;61364;52.418;7.382;2022-07-26T06:52:14;2.38;;;2.38;;
73154;SDS011;61364;52.418;7.382;2022-07-26T06:54:40;2.28;;;2.28;;
73154;SDS011;61364;52.418;7.382;2022-07-26T06:57:05;2.48;;;2.48;;
73154;SDS011;61364;52.418;7.382;2022-07-26T06:59:31;2.33;;;2.33;;
73154;SDS011;61364;52.418;7.382;2022-07-26T07:01:56;2.43;;;2.43;;
73154;SDS011;61364;52.418;7.382;2022-07-26T07:04:22;2.49;;;2.49;;
73154;SDS011;61364;52.418;7.382;2022-07-26T07:06:47;2.54;;;2.54;;
73154;SDS011;61364;52.418;7.382;2022-07-26T07:09:12;2.46;;;2.46;;
73154;SDS011;61364;52.418;7.382;2022-07-26T07:11:38;2.52;;;2.52;;
73154;SDS011;61364;52.418;7.382;2022-07-26T07:14:03;2.64;;;2.64;;
73154;SDS011;61364;52.418;7.382;2022-07-26T07:16:29;2.74;;;2.74;;
73154;SDS011;61364;52.418;7.382;2022-07-26T07:18:54;2.80;;;2.80;;
73154;SDS011;61364;52.418;7.382;2022-07-26T07:21:20;2.96;;;2.96;;
73154;SDS011;61364;52.418;7.382;2022-07-26T07:23:45;2.54;;;2.54;;
73154;SDS011;61364;52.418;7.382;2022-07-26T07:26:10;2.92;;;2.92;;
73154;SDS011;61364;52.418;7.382;2022-07-26T07:28:36;2.53;;;2.53;;
73154;SDS011;61364;52.418;7.382;2022-07-26T07:31:05;2.66;;;2.66;;
73154;SDS011;61364;52.418;7.382;2022-07-26T07:33:30;2.68;;;2.68;;
73154;SDS011;61364;52.418;7.382;2022-07-26T07:35:56;2.94;;;2.94;;
73154;SDS011;61364;52.418;7.382;2022-07-26T07:38:21;2.80;;;2.80;;
73154;SDS011;61364;52.418;7.382;2022-07-26T07:40:47;2.84;;;2.84;;
73154;SDS011;61364;52.418;7.382;2022-07-26T07:43:12;3.03;;;3.03;;
73154;SDS011;61364;52.418;7.382;2022-07-26T07:45:38;2.92;;;2.92;;
73154;SDS011;61364;52.418;7.382;2022-07-26T07:48:03;3.12;;;3.12;;
73154;SDS011;61364;52.418;7.382;2022-07-26T07:50:29;2.76;;;2.76;;
73154;SDS011;61364;52.418;7.382;2022-07-26T07:52:54;2.94;;;2.94;;
73154;SDS011;61364;52.418;7.382;2022-07-26T07:55:20;2.90;;;2.90;;
73154;SDS011;61364;52.418;7.382;2022-07-26T07:57:46;2.81;;;2.81;;
73154;SDS011;61364;52.418;7.382;2022-07-26T08:00:12;2.80;;;2.80;;
73154;SDS011;61364;52.418;7.382;2022-07-26T08:02:40;2.74;;;2.74;;
73154;SDS011;61364;52.418;7.382;2022-07-26T08:05:05;2.37;;;2.37;;
73154;SDS011;61364;52.418;7.382;2022-07-26T08:07:33;2.27;;;2.27;;
73154;SDS011;61364;52.418;7.382;2022-07-26T08:09:59;2.09;;;2.09;;
73154;SDS011;61364;52.418;7.382;2022-07-26T08:12:24;1.90;;;1.90;;
73154;SDS011;61364;52.418;7.382;2022-07-26T08:14:50;1.67;;;1.67;;
73154;SDS011;61364;52.418;7.382;2022-07-26T08:17:16;1.61;;;1.61;;
73154;SDS011;61364;52.418;7.382;2022-07-26T08:19:41;1.57;;;1.57;;
73154;SDS011;61364;52.418;7.382;2022-07-26T08:22:07;1.52;;;1.50;;
73154;SDS011;61364;52.418;7.382;2022-07-26T08:24:33;1.57;;;1.52;;
73154;SDS011;61364;52.418;7.382;2022-07-26T08:26:58;1.66;;;1.61;;
73154;SDS011;61364;52.418;7.382;2022-07-26T08:29:24;1.50;;;1.46;;
73154;SDS011;61364;52.418;7.382;2022-07-26T08:31:50;1.41;;;1.37;;
73154;SDS011;61364;52.418;7.382;2022-07-26T08:34:17;1.46;;;1.41;;
73154;SDS011;61364;52.418;7.382;2022-07-26T08:36:43;1.39;;;1.33;;
73154;SDS011;61364;52.418;7.382;2022-07-26T08:39:09;1.26;;;1.20;;
73154;SDS011;61364;52.418;7.382;2022-07-26T08:41:35;0.92;;;0.88;;
73154;SDS011;61364;52.418;7.382;2022-07-26T08:44:08;0.87;;;0.84;;
73154;SDS011;61364;52.418;7.382;2022-07-26T08:46:35;0.77;;;0.73;;
73154;SDS011;61364;52.418;7.382;2022-07-26T08:49:01;0.74;;;0.70;;
73154;SDS011;61364;52.418;7.382;2022-07-26T08:51:27;0.79;;;0.75;;
73154;SDS011;61364;52.418;7.382;2022-07-26T08:53:53;0.83;;;0.78;;
73154;SDS011;61364;52.418;7.382;2022-07-26T08:56:19;0.63;;;0.59;;
73154;SDS011;61364;52.418;7.382;2022-07-26T08:58:44;0.58;;;0.54;;
73154;SDS011;61364;52.418;7.382;2022-07-26T09:01:10;0.74;;;0.68;;
73154;SDS011;61364;52.418;7.382;2022-07-26T09:03:37;0.92;;;0.82;;
73154;SDS011;61364;52.418;7.382;2022-07-26T09:06:13;0.72;;;0.63;;
73154;SDS011;61364;52.418;7.382;2022-07-26T09:08:39;0.53;;;0.45;;
73154;SDS011;61364;52.418;7.382;2022-07-26T09:14:00;0.64;;;0.56;;
73154;SDS011;61364;52.418;7.382;2022-07-26T09:16:28;0.75;;;0.66;;
73154;SDS011;61364;52.418;7.382;2022-07-26T09:18:54;0.75;;;0.65;;
73154;SDS011;61364;52.418;7.382;2022-07-26T09:23:54;0.83;;;0.72;;
73154;SDS011;61364;52.418;7.382;2022-07-26T09:26:20;1.17;;;1.01;;
73154;SDS011;61364;52.418;7.382;2022-07-26T09:28:47;0.96;;;0.83;;
73154;SDS011;61364;52.418;7.382;2022-07-26T09:31:25;1.01;;;0.86;;
73154;SDS011;61364;52.418;7.382;2022-07-26T09:33:51;1.07;;;0.90;;
73154;SDS011;61364;52.418;7.382;2022-07-26T09:36:17;1.15;;;0.98;;
73154;SDS011;61364;52.418;7.382;2022-07-26T09:38:44;0.95;;;0.83;;
73154;SDS011;61364;52.418;7.382;2022-07-26T09:43:42;1.03;;;0.89;;
73154;SDS011;61364;52.418;7.382;2022-07-26T09:46:08;1.02;;;0.90;;
73154;SDS011;61364;52.418;7.382;2022-07-26T09:48:35;0.89;;;0.78;;
73154;SDS011;61364;52.418;7.382;2022-07-26T09:51:06;1.08;;;0.97;;
73154;SDS011;61364;52.418;7.382;2022-07-26T09:53:40;1.27;;;1.16;;
73154;SDS011;61364;52.418;7.382;2022-07-26T09:56:06;1.06;;;0.99;;
73154;SDS011;61364;52.418;7.382;2022-07-26T09:58:33;1.38;;;1.31;;
73154;SDS011;61364;52.418;7.382;2022-07-26T10:01:00;0.99;;;0.95;;
73154;SDS011;61364;52.418;7.382;2022-07-26T10:03:25;0.82;;;0.78;;
73154;SDS011;61364;52.418;7.382;2022-07-26T10:05:51;0.89;;;0.84;;
73154;SDS011;61364;52.418;7.382;2022-07-26T10:08:17;0.81;;;0.76;;
73154;SDS011;61364;52.418;7.382;2022-07-26T10:10:49;0.89;;;0.84;;
73154;SDS011;61364;52.418;7.382;2022-07-26T10:13:20;0.70;;;0.65;;
73154;SDS011;61364;52.418;7.382;2022-07-26T10:15:47;0.69;;;0.64;;
73154;SDS011;61364;52.418;7.382;2022-07-26T10:20:58;0.85;;;0.77;;
73154;SDS011;61364;52.418;7.382;2022-07-26T10:23:42;0.83;;;0.75;;
73154;SDS011;61364;52.418;7.382;2022-07-26T10:28:53;0.80;;;0.71;;
73154;SDS011;61364;52.418;7.382;2022-07-26T10:33:48;0.71;;;0.63;;
73154;SDS011;61364;52.418;7.382;2022-07-26T10:36:28;0.67;;;0.60;;
73154;SDS011;61364;52.418;7.382;2022-07-26T10:41:58;0.65;;;0.58;;
73154;SDS011;61364;52.418;7.382;2022-07-26T10:44:17;0.72;;;0.65;;
73154;SDS011;61364;52.418;7.382;2022-07-26T10:49:19;0.77;;;0.70;;
73154;SDS011;61364;52.418;7.382;2022-07-26T10:51:44;0.78;;;0.71;;
73154;SDS011;61364;52.418;7.382;2022-07-26T10:54:11;0.92;;;0.85;;
73154;SDS011;61364;52.418;7.382;2022-07-26T10:56:37;0.89;;;0.81;;
73154;SDS011;61364;52.418;7.382;2022-07-26T10:59:03;0.87;;;0.80;;
73154;SDS011;61364;52.418;7.382;2022-07-26T11:01:39;0.88;;;0.81;;
73154;SDS011;61364;52.418;7.382;2022-07-26T11:04:27;0.94;;;0.88;;
73154;SDS011;61364;52.418;7.382;2022-07-26T11:06:51;0.82;;;0.76;;
73154;SDS011;61364;52.418;7.382;2022-07-26T11:09:17;0.75;;;0.69;;
73154;SDS011;61364;52.418;7.382;2022-07-26T11:11:43;1.27;;;1.17;;
73154;SDS011;61364;52.418;7.382;2022-07-26T11:14:11;1.15;;;1.05;;
73154;SDS011;61364;52.418;7.382;2022-07-26T11:16:41;0.99;;;0.92;;
73154;SDS011;61364;52.418;7.382;2022-07-26T11:19:15;1.13;;;1.05;;
73154;SDS011;61364;52.418;7.382;2022-07-26T11:21:42;0.91;;;0.84;;
73154;SDS011;61364;52.418;7.382;2022-07-26T11:24:08;1.03;;;0.95;;
73154;SDS011;61364;52.418;7.382;2022-07-26T11:26:44;2.30;;;2.12;;
73154;SDS011;61364;52.418;7.382;2022-07-26T11:29:11;2.14;;;1.98;;
73154;SDS011;61364;52.418;7.382;2022-07-26T11:31:41;1.98;;;1.85;;
73154;SDS011;61364;52.418;7.382;2022-07-26T11:34:14;0.93;;;0.87;;
73154;SDS011;61364;52.418;7.382;2022-07-26T11:36:42;1.06;;;0.98;;
73154;SDS011;61364;52.418;7.382;2022-07-26T11:42:11;3.08;;;2.86;;
73154;SDS011;61364;52.418;7.382;2022-07-26T11:44:43;1.08;;;1.00;;
73154;SDS011;61364;52.418;7.382;2022-07-26T11:47:19;0.90;;;0.83;;
73154;SDS011;61364;52.418;7.382;2022-07-26T11:49:46;0.92;;;0.84;;
73154;SDS011;61364;52.418;7.382;2022-07-26T11:52:13;1.07;;;0.96;;
73154;SDS011;61364;52.418;7.382;2022-07-26T11:54:44;1.13;;;1.00;;
73154;SDS011;61364;52.418;7.382;2022-07-26T11:57:10;1.10;;;0.98;;
73154;SDS011;61364;52.418;7.382;2022-07-26T11:59:37;1.30;;;1.12;;
73154;SDS011;61364;52.418;7.382;2022-07-26T12:02:04;1.35;;;1.14;;
73154;SDS011;61364;52.418;7.382;2022-07-26T12:04:32;1.22;;;1.03;;
73154;SDS011;61364;52.418;7.382;2022-07-26T12:06:58;1.27;;;1.09;;
73154;SDS011;61364;52.418;7.382;2022-07-26T12:09:28;1.22;;;1.05;;
73154;SDS011;61364;52.418;7.382;2022-07-26T12:11:54;1.12;;;0.98;;
73154;SDS011;61364;52.418;7.382;2022-07-26T12:14:27;1.14;;;1.00;;
73154;SDS011;61364;52.418;7.382;2022-07-26T12:16:53;1.18;;;1.02;;
73154;SDS011;61364;52.418;7.382;2022-07-26T12:21:46;1.27;;;1.11;;
73154;SDS011;61364;52.418;7.382;2022-07-26T12:24:14;1.15;;;1.00;;
73154;SDS011;61364;52.418;7.382;2022-07-26T12:27:05;1.46;;;1.25;;
73154;SDS011;61364;52.418;7.382;2022-07-26T12:29:32;1.40;;;1.18;;
73154;SDS011;61364;52.418;7.382;2022-07-26T12:32:02;1.28;;;1.11;;
73154;SDS011;61364;52.418;7.382;2022-07-26T12:34:28;1.42;;;1.25;;
73154;SDS011;61364;52.418;7.382;2022-07-26T12:36:53;1.32;;;1.16;;
73154;SDS011;61364;52.418;7.382;2022-07-26T12:39:20;1.42;;;1.24;;
73154;SDS011;61364;52.418;7.382;2022-07-26T12:41:46;1.47;;;1.32;;
73154;SDS011;61364;52.418;7.382;2022-07-26T12:44:15;3.88;;;3.56;;
73154;SDS011;61364;52.418;7.382;2022-07-26T12:46:42;1.89;;;1.77;;
73154;SDS011;61364;52.418;7.382;2022-07-26T12:49:11;4.17;;;3.94;;
73154;SDS011;61364;52.418;7.382;2022-07-26T12:51:37;2.59;;;2.49;;
73154;SDS011;61364;52.418;7.382;2022-07-26T12:54:03;1.62;;;1.53;;
73154;SDS011;61364;52.418;7.382;2022-07-26T12:56:31;1.36;;;1.30;;
73154;SDS011;61364;52.418;7.382;2022-07-26T12:58:56;1.27;;;1.21;;
73154;SDS011;61364;52.418;7.382;2022-07-26T13:01:28;1.44;;;1.33;;
73154;SDS011;61364;52.418;7.382;2022-07-26T13:03:55;1.49;;;1.34;;
73154;SDS011;61364;52.418;7.382;2022-07-26T13:06:20;1.57;;;1.42;;
73154;SDS011;61364;52.418;7.382;2022-07-26T13:08:46;1.65;;;1.48;;
73154;SDS011;61364;52.418;7.382;2022-07-26T13:11:11;1.39;;;1.26;;
73154;SDS011;61364;52.418;7.382;2022-07-26T13:13:37;1.12;;;1.03;;
73154;SDS011;61364;52.418;7.382;2022-07-26T13:16:03;1.22;;;1.13;;
73154;SDS011;61364;52.418;7.382;2022-07-26T13:18:28;1.55;;;1.42;;
73154;SDS011;61364;52.418;7.382;2022-07-26T13:20:54;1.45;;;1.35;;
73154;SDS011;61364;52.418;7.382;2022-07-26T13:23:20;1.34;;;1.25;;
73154;SDS011;61364;52.418;7.382;2022-07-26T13:25:46;1.15;;;1.06;;
73154;SDS011;61364;52.418;7.382;2022-07-26T13:28:11;1.42;;;1.30;;
73154;SDS011;61364;52.418;7.382;2022-07-26T13:30:37;1.24;;;1.16;;
73154;SDS011;61364;52.418;7.382;2022-07-26T13:33:05;1.43;;;1.33;;
73154;SDS011;61364;52.418;7.382;2022-07-26T13:35:30;1.39;;;1.30;;
73154;SDS011;61364;52.418;7.382;2022-07-26T13:37:56;1.17;;;1.09;;
73154;SDS011;61364;52.418;7.382;2022-07-26T13:40:21;1.29;;;1.19;;
73154;SDS011;61364;52.418;7.382;2022-07-26T13:42:47;1.71;;;1.57;;
73154;SDS011;61364;52.418;7.382;2022-07-26T13:45:14;1.82;;;1.64;;
73154;SDS011;61364;52.418;7.382;2022-07-26T13:47:39;3.30;;;2.94;;
73154;SDS011;61364;52.418;7.382;2022-07-26T13:50:05;3.23;;;2.89;;
73154;SDS011;61364;52.418;7.382;2022-07-26T13:52:31;3.85;;;3.56;;
73154;SDS011;61364;52.418;7.382;2022-07-26T13:54:57;2.43;;;2.29;;
73154;SDS011;61364;52.418;7.382;2022-07-26T13:57:23;1.80;;;1.69;;
73154;SDS011;61364;52.418;7.382;2022-07-26T13:59:48;3.67;;;3.48;;
73154;SDS011;61364;52.418;7.382;2022-07-26T14:02:13;3.16;;;3.03;;
73154;SDS011;61364;52.418;7.382;2022-07-26T14:04:39;3.64;;;3.53;;
73154;SDS011;61364;52.418;7.382;2022-07-26T14:07:05;5.82;;;5.70;;
73154;SDS011;61364;52.418;7.382;2022-07-26T14:09:30;3.23;;;3.19;;
73154;SDS011;61364;52.418;7.382;2022-07-26T14:11:55;3.21;;;3.13;;
73154;SDS011;61364;52.418;7.382;2022-07-26T14:14:21;3.26;;;3.19;;
73154;SDS011;61364;52.418;7.382;2022-07-26T14:16:47;2.38;;;2.37;;
73154;SDS011;61364;52.418;7.382;2022-07-26T14:19:13;2.64;;;2.56;;
73154;SDS011;61364;52.418;7.382;2022-07-26T14:21:38;2.84;;;2.72;;
73154;SDS011;61364;52.418;7.382;2022-07-26T14:24:04;2.84;;;2.68;;
73154;SDS011;61364;52.418;7.382;2022-07-26T14:26:30;3.33;;;3.21;;
73154;SDS011;61364;52.418;7.382;2022-07-26T14:28:56;2.94;;;2.88;;
73154;SDS011;61364;52.418;7.382;2022-07-26T14:31:21;1.76;;;1.73;;
73154;SDS011;61364;52.418;7.382;2022-07-26T14:33:47;1.71;;;1.62;;
73154;SDS011;61364;52.418;7.382;2022-07-26T14:36:12;1.69;;;1.59;;
73154;SDS011;61364;52.418;7.382;2022-07-26T14:38:39;1.65;;;1.54;;
73154;SDS011;61364;52.418;7.382;2022-07-26T14:41:05;1.77;;;1.64;;
73154;SDS011;61364;52.418;7.382;2022-07-26T14:43:31;2.02;;;1.88;;
73154;SDS011;61364;52.418;7.382;2022-07-26T14:45:56;2.07;;;1.90;;
73154;SDS011;61364;52.418;7.382;2022-07-26T14:48:22;2.38;;;2.14;;
73154;SDS011;61364;52.418;7.382;2022-07-26T14:50:47;2.10;;;1.92;;
73154;SDS011;61364;52.418;7.382;2022-07-26T14:53:13;1.97;;;1.83;;
73154;SDS011;61364;52.418;7.382;2022-07-26T14:55:40;2.00;;;1.83;;
73154;SDS011;61364;52.418;7.382;2022-07-26T14:58:05;1.95;;;1.74;;
73154;SDS011;61364;52.418;7.382;2022-07-26T15:00:31;1.84;;;1.63;;
73154;SDS011;61364;52.418;7.382;2022-07-26T15:02:57;2.07;;;1.82;;
73154;SDS011;61364;52.418;7.382;2022-07-26T15:05:23;2.31;;;1.98;;
73154;SDS011;61364;52.418;7.382;2022-07-26T15:07:49;2.30;;;1.94;;
73154;SDS011;61364;52.418;7.382;2022-07-26T15:10:15;2.71;;;2.19;;
73154;SDS011;61364;52.418;7.382;2022-07-26T15:12:41;2.46;;;2.02;;